Time;durP1;ratioP1;P1;durP2;ratioP2;P2;SDS_P1;SDS_P2;PMS_P1;PMS_P2;Temp;Humidity;BMP_temperature;BMP_pressure;BME280_temperature;BME280_humidity;BME280_pressure;Samples;Min_cycle;Max_cycle;Signal;HPM_P1;HPM_P2
2022/08/20 00:00:56;;;;;;;16.67;15.17;;;19.20;99.90;;;;;;5081718;28;20473;-69
2022/08/20 00:03:26;;;;;;;43.40;15.60;;;19.20;99.90;;;;;;5078310;28;20540;-70
2022/08/20 00:05:56;;;;;;;16.73;15.43;;;19.20;99.90;;;;;;5075084;28;21067;-70
2022/08/20 00:08:23;;;;;;;15.50;13.90;;;19.20;99.90;;;;;;5078002;28;20500;-68
2022/08/20 00:10:53;;;;;;;17.07;15.47;;;19.20;99.90;;;;;;5073407;28;20854;-67
2022/08/20 00:13:24;;;;;;;16.13;14.20;;;19.10;99.90;;;;;;5085381;28;20486;-68
2022/08/20 00:15:52;;;;;;;15.47;13.43;;;19.10;99.90;;;;;;5081533;28;20512;-67
2022/08/20 00:18:20;;;;;;;14.87;13.57;;;19.10;99.90;;;;;;5077815;28;21011;-67
2022/08/20 00:20:50;;;;;;;15.17;14.10;;;19.10;99.90;;;;;;5078744;28;20461;-67
2022/08/20 00:23:17;;;;;;;15.00;13.80;;;19.10;99.90;;;;;;5079506;28;20465;-68
2022/08/20 00:25:47;;;;;;;15.23;14.23;;;19.00;99.90;;;;;;5072302;28;20479;-67
2022/08/20 00:28:17;;;;;;;15.43;14.17;;;18.90;99.90;;;;;;5078462;28;20467;-68
2022/08/20 00:30:45;;;;;;;15.47;14.20;;;18.90;99.90;;;;;;5083275;28;20489;-68
2022/08/20 00:33:16;;;;;;;15.37;14.13;;;18.90;99.90;;;;;;5073166;28;20462;-68
2022/08/20 00:35:45;;;;;;;16.13;14.67;;;18.90;99.90;;;;;;5073900;28;20463;-68
2022/08/20 00:38:13;;;;;;;18.17;16.47;;;18.90;99.90;;;;;;5082134;28;20569;-67
2022/08/20 00:40:43;;;;;;;22.23;15.63;;;18.90;99.90;;;;;;5074916;28;20462;-67
2022/08/20 00:43:32;;;;;;;18.27;16.70;;;19.00;99.90;;;;;;5080329;28;20455;-68
2022/08/20 00:46:00;;;;;;;16.43;14.90;;;18.90;99.90;;;;;;5080948;28;20494;-67
2022/08/20 00:48:30;;;;;;;16.00;14.80;;;19.00;99.90;;;;;;5083628;28;20465;-68
2022/08/20 00:51:02;;;;;;;15.93;14.40;;;19.00;99.90;;;;;;5080269;28;20480;-69
2022/08/20 00:53:29;;;;;;;17.10;15.77;;;19.00;99.90;;;;;;5076911;28;20490;-67
2022/08/20 00:55:57;;;;;;;16.17;14.73;;;19.00;99.90;;;;;;5079132;28;20494;-69
2022/08/20 00:58:26;;;;;;;18.10;16.27;;;19.00;99.90;;;;;;5076197;28;20944;-67
2022/08/20 01:00:55;;;;;;;18.50;16.67;;;19.10;99.90;;;;;;5067819;28;20466;-67
2022/08/20 01:03:24;;;;;;;17.33;16.00;;;19.10;99.90;;;;;;5079892;28;20469;-68
2022/08/20 01:05:53;;;;;;;17.17;15.70;;;19.00;99.90;;;;;;5076503;28;20636;-68
2022/08/20 01:08:23;;;;;;;19.30;16.43;;;18.90;99.90;;;;;;5075463;28;20461;-69
2022/08/20 01:11:05;;;;;;;16.77;15.07;;;18.90;99.90;;;;;;5078800;28;20482;-67
2022/08/20 01:13:37;;;;;;;17.83;16.27;;;18.90;99.90;;;;;;5079538;28;21010;-68
2022/08/20 01:16:08;;;;;;;18.20;16.30;;;18.90;99.90;;;;;;5080144;28;20478;-67
2022/08/20 01:18:38;;;;;;;17.83;16.33;;;18.80;99.90;;;;;;5078148;28;20507;-68
2022/08/20 01:21:07;;;;;;;18.23;16.63;;;18.80;99.90;;;;;;5074492;28;20489;-67
2022/08/20 01:23:40;;;;;;;18.87;17.13;;;18.80;99.90;;;;;;5078360;28;20457;-69
2022/08/20 01:26:13;;;;;;;19.67;17.67;;;18.80;99.90;;;;;;5076809;28;21039;-67
2022/08/20 01:28:44;;;;;;;18.40;16.97;;;18.70;99.90;;;;;;5085071;28;20470;-67
2022/08/20 01:31:13;;;;;;;18.60;16.90;;;18.80;99.90;;;;;;5080023;28;20486;-67
2022/08/20 01:33:40;;;;;;;20.63;18.50;;;18.80;99.90;;;;;;5077062;28;20464;-68
2022/08/20 01:36:09;;;;;;;18.23;16.73;;;18.80;99.90;;;;;;5079410;28;20485;-68
2022/08/20 01:38:36;;;;;;;19.20;17.50;;;18.80;99.90;;;;;;5074781;28;20454;-67
2022/08/20 01:41:25;;;;;;;20.93;17.50;;;18.70;99.90;;;;;;5081700;28;20472;-67
2022/08/20 01:43:55;;;;;;;19.70;17.80;;;18.70;99.90;;;;;;5056537;28;20459;-69
2022/08/20 01:46:24;;;;;;;21.53;17.40;;;18.70;99.90;;;;;;5077865;28;20552;-69
2022/08/20 01:48:54;;;;;;;20.17;18.40;;;18.60;99.90;;;;;;5082130;28;20454;-69
2022/08/20 01:51:29;;;;;;;19.83;18.00;;;18.60;99.90;;;;;;5077954;28;20488;-69
2022/08/20 01:53:58;;;;;;;22.03;19.80;;;18.60;99.90;;;;;;5078678;28;20489;-69
2022/08/20 01:56:29;;;;;;;22.10;19.80;;;18.60;99.90;;;;;;5089441;28;20458;-67
2022/08/20 01:58:58;;;;;;;20.53;18.10;;;18.60;99.90;;;;;;5082424;28;20573;-68
2022/08/20 02:01:31;;;;;;;22.03;19.67;;;18.60;99.90;;;;;;5079963;28;20469;-67
2022/08/20 02:04:01;;;;;;;23.10;20.83;;;18.60;99.90;;;;;;5077777;28;20451;-67
2022/08/20 02:06:30;;;;;;;25.87;20.70;;;18.60;99.90;;;;;;5080789;28;21011;-69
2022/08/20 02:09:00;;;;;;;24.53;19.90;;;18.60;99.90;;;;;;5082343;28;20468;-67
2022/08/20 02:11:30;;;;;;;23.40;21.03;;;18.60;99.90;;;;;;5083328;28;20482;-67
2022/08/20 02:13:57;;;;;;;23.63;21.40;;;18.60;99.90;;;;;;5079036;28;20469;-69
2022/08/20 02:16:27;;;;;;;22.33;20.13;;;18.60;99.90;;;;;;5082062;28;20859;-67
2022/08/20 02:18:58;;;;;;;23.97;21.63;;;18.70;99.90;;;;;;5081885;28;20462;-66
2022/08/20 02:21:28;;;;;;;23.40;21.10;;;18.80;99.90;;;;;;5082657;28;20823;-66
2022/08/20 02:23:56;;;;;;;24.70;22.27;;;18.80;99.90;;;;;;5079125;28;20462;-67
2022/08/20 02:26:24;;;;;;;23.40;21.20;;;18.90;99.90;;;;;;5076801;28;20456;-66
2022/08/20 02:28:54;;;;;;;23.47;21.27;;;19.00;99.90;;;;;;5079702;28;20449;-67
2022/08/20 02:31:23;;;;;;;21.47;19.67;;;19.00;99.90;;;;;;5077939;28;20474;-67
2022/08/20 02:33:51;;;;;;;22.23;20.37;;;19.10;99.90;;;;;;5078783;28;20462;-67
2022/08/20 02:36:20;;;;;;;23.27;21.17;;;19.10;99.90;;;;;;5085330;28;20460;-68
2022/08/20 02:38:47;;;;;;;25.60;21.20;;;19.00;99.90;;;;;;5077045;28;20488;-66
2022/08/20 02:41:14;;;;;;;24.33;21.80;;;19.00;99.90;;;;;;5071966;28;20486;-66
2022/08/20 02:43:42;;;;;;;24.30;22.50;;;19.10;99.90;;;;;;5080531;28;20516;-66
2022/08/20 02:46:11;;;;;;;23.37;21.37;;;19.10;99.90;;;;;;5078398;28;21187;-67
2022/08/20 02:48:39;;;;;;;22.83;20.83;;;19.20;99.90;;;;;;5075522;28;20821;-66
2022/08/20 02:51:07;;;;;;;22.23;20.40;;;19.30;99.90;;;;;;5078392;28;20488;-66
2022/08/20 02:53:38;;;;;;;23.90;20.43;;;19.20;99.90;;;;;;5078272;28;20497;-67
2022/08/20 02:56:06;;;;;;;21.40;19.60;;;19.20;99.90;;;;;;5081298;28;20827;-67
2022/08/20 02:58:34;;;;;;;22.57;20.57;;;19.10;99.90;;;;;;5074814;28;20818;-67
2022/08/20 03:01:01;;;;;;;26.63;18.63;;;19.10;99.90;;;;;;5077506;28;20473;-67
2022/08/20 03:03:29;;;;;;;22.53;19.50;;;19.00;99.90;;;;;;5078502;28;21008;-67
2022/08/20 03:05:58;;;;;;;21.57;19.27;;;19.10;99.90;;;;;;5077551;28;20463;-68
2022/08/20 03:08:26;;;;;;;22.40;20.00;;;19.00;99.90;;;;;;5078346;28;20454;-67
2022/08/20 03:10:53;;;;;;;23.97;21.20;;;19.00;99.90;;;;;;5080380;28;20454;-67
2022/08/20 03:13:21;;;;;;;22.47;20.47;;;19.10;99.90;;;;;;5074152;28;20494;-69
2022/08/20 03:15:51;;;;;;;22.93;20.53;;;19.20;99.90;;;;;;5079540;28;20482;-68
2022/08/20 03:18:19;;;;;;;21.90;19.97;;;19.20;99.90;;;;;;5076303;28;20458;-68
2022/08/20 03:20:48;;;;;;;23.17;21.00;;;19.30;99.90;;;;;;5082989;28;20817;-67
2022/08/20 03:23:16;;;;;;;24.17;21.83;;;19.40;99.90;;;;;;5077466;28;20462;-68
2022/08/20 03:25:44;;;;;;;22.83;20.33;;;19.30;99.90;;;;;;5076097;28;20992;-68
2022/08/20 03:28:13;;;;;;;24.40;20.70;;;19.30;99.90;;;;;;5078700;28;20463;-68
2022/08/20 03:30:41;;;;;;;27.17;22.43;;;19.40;99.90;;;;;;5076070;28;20483;-67
2022/08/20 03:33:08;;;;;;;27.27;24.53;;;19.30;99.90;;;;;;5075671;28;20485;-66
2022/08/20 03:35:37;;;;;;;29.63;26.13;;;19.30;99.90;;;;;;5075162;28;20457;-68
2022/08/20 03:38:09;;;;;;;30.60;26.50;;;19.30;99.90;;;;;;5080708;28;20460;-67
2022/08/20 03:40:38;;;;;;;31.70;26.50;;;19.30;99.90;;;;;;5072165;28;20466;-68
2022/08/20 03:43:07;;;;;;;31.77;27.03;;;19.30;99.90;;;;;;5079340;28;20454;-68
2022/08/20 03:45:36;;;;;;;39.47;31.50;;;19.20;99.90;;;;;;5088508;28;20454;-68
2022/08/20 03:48:06;;;;;;;40.07;30.80;;;19.20;99.90;;;;;;5081282;28;20461;-68
2022/08/20 03:50:34;;;;;;;35.53;30.33;;;19.20;99.90;;;;;;5077501;28;20453;-67
2022/08/20 03:53:01;;;;;;;38.13;28.83;;;19.20;99.90;;;;;;5074056;28;20498;-68
2022/08/20 03:55:31;;;;;;;40.67;29.70;;;19.20;99.90;;;;;;5077360;28;20831;-68
2022/08/20 03:58:01;;;;;;;46.20;31.70;;;19.20;99.90;;;;;;5080831;28;20459;-68
2022/08/20 04:00:32;;;;;;;47.30;34.50;;;19.10;99.90;;;;;;5077193;28;20470;-68
2022/08/20 04:02:59;;;;;;;45.97;34.40;;;19.00;99.90;;;;;;5053084;28;20913;-68
2022/08/20 04:05:28;;;;;;;49.80;33.77;;;19.00;99.90;;;;;;5046758;28;20611;-69
2022/08/20 04:07:55;;;;;;;48.87;34.87;;;19.00;99.90;;;;;;5043521;28;20466;-68
2022/08/20 04:10:23;;;;;;;48.60;37.30;;;19.10;99.90;;;;;;5044502;28;20460;-68
2022/08/20 04:12:51;;;;;;;52.20;35.63;;;19.00;99.90;;;;;;5044055;28;21174;-68
2022/08/20 04:15:19;;;;;;;56.80;38.00;;;19.00;99.90;;;;;;5044242;28;20931;-69
2022/08/20 04:17:48;;;;;;;51.37;36.90;;;19.00;99.90;;;;;;5045491;28;21195;-67
2022/08/20 04:20:17;;;;;;;54.37;39.07;;;19.00;99.90;;;;;;5046656;28;20538;-66
2022/08/20 04:22:46;;;;;;;52.00;37.07;;;18.90;99.90;;;;;;5046521;28;20471;-67
2022/08/20 04:25:13;;;;;;;50.93;33.70;;;19.00;99.90;;;;;;5045439;28;21098;-67
2022/08/20 04:27:41;;;;;;;55.23;36.47;;;19.00;99.90;;;;;;5044325;28;20454;-66
2022/08/20 04:30:13;;;;;;;59.90;37.40;;;19.10;99.90;;;;;;5046207;28;20470;-67
2022/08/20 04:32:40;;;;;;;61.27;37.50;;;19.00;99.90;;;;;;5045300;28;20498;-67
2022/08/20 04:35:10;;;;;;;54.40;38.20;;;18.90;99.90;;;;;;5046232;28;20456;-67
2022/08/20 04:37:38;;;;;;;58.03;38.07;;;18.90;99.90;;;;;;5046517;28;20478;-67
2022/08/20 04:42:51;;;;;;;56.03;37.20;;;19.00;99.90;;;;;;5045481;28;20473;-66
2022/08/20 04:45:20;;;;;;;51.43;35.83;;;18.90;99.90;;;;;;5046939;28;20455;-67
2022/08/20 04:47:47;;;;;;;54.73;35.93;;;18.90;99.90;;;;;;5045788;28;21144;-67
2022/08/20 04:50:14;;;;;;;54.40;37.93;;;18.90;99.90;;;;;;5045422;28;20463;-67
2022/08/20 04:52:41;;;;;;;53.53;37.27;;;18.90;99.90;;;;;;5045877;28;20486;-67
2022/08/20 04:55:09;;;;;;;50.77;34.17;;;18.90;99.90;;;;;;5046248;28;20467;-69
2022/08/20 04:57:37;;;;;;;53.97;36.67;;;18.80;99.90;;;;;;5044315;28;20459;-68
2022/08/20 05:00:07;;;;;;;60.97;37.73;;;18.90;99.90;;;;;;5046748;28;20455;-68
2022/08/20 05:02:36;;;;;;;54.37;37.00;;;18.90;99.90;;;;;;5047411;28;20463;-69
2022/08/20 05:05:06;;;;;;;54.97;36.70;;;18.90;99.90;;;;;;5046803;28;21960;-68
2022/08/20 05:07:39;;;;;;;46.83;35.60;;;19.00;99.90;;;;;;5046762;28;20560;-67
2022/08/20 05:10:07;;;;;;;53.83;35.97;;;18.90;99.90;;;;;;5045577;28;20470;-68
2022/08/20 05:12:33;;;;;;;55.23;36.23;;;18.70;99.90;;;;;;5044289;28;21277;-67
2022/08/20 05:15:00;;;;;;;53.67;36.37;;;18.70;99.90;;;;;;5046257;28;20522;-67
2022/08/20 05:17:28;;;;;;;58.97;34.70;;;18.70;99.90;;;;;;5044655;28;21028;-67
2022/08/20 05:19:57;;;;;;;49.13;34.80;;;18.70;99.90;;;;;;5046431;28;20455;-68
2022/08/20 05:22:24;;;;;;;58.20;33.40;;;18.70;99.90;;;;;;5051978;28;20463;-67
2022/08/20 05:24:51;;;;;;;57.93;34.87;;;18.70;99.90;;;;;;5050577;28;20446;-68
2022/08/20 05:27:20;;;;;;;51.50;34.00;;;18.70;99.90;;;;;;5050200;28;21239;-67
2022/08/20 05:29:47;;;;;;;45.40;33.77;;;18.70;99.90;;;;;;5051401;28;20841;-66
2022/08/20 05:32:14;;;;;;;49.70;33.97;;;18.70;99.90;;;;;;5050857;28;21575;-67
2022/08/20 05:34:42;;;;;;;47.33;33.93;;;18.70;99.90;;;;;;5051611;28;20459;-67
2022/08/20 05:37:10;;;;;;;61.53;35.63;;;18.70;99.90;;;;;;5051333;28;20474;-67
2022/08/20 05:39:37;;;;;;;50.53;32.87;;;18.70;99.90;;;;;;5051437;28;20495;-66
2022/08/20 05:42:04;;;;;;;49.67;32.67;;;18.70;99.90;;;;;;5049059;28;20462;-68
2022/08/20 05:44:30;;;;;;;41.27;31.80;;;18.70;99.90;;;;;;5051615;28;20934;-67
2022/08/20 05:46:57;;;;;;;48.07;33.17;;;18.70;99.90;;;;;;5049744;28;21226;-66
2022/08/20 05:49:24;;;;;;;42.83;32.90;;;18.60;99.90;;;;;;5051593;28;21058;-66
2022/08/20 05:51:51;;;;;;;48.97;32.57;;;18.60;99.90;;;;;;5050289;28;20542;-66
2022/08/20 05:54:19;;;;;;;43.13;31.70;;;18.70;99.90;;;;;;5050760;28;20789;-67
2022/08/20 05:56:46;;;;;;;40.47;30.63;;;18.70;99.90;;;;;;5050400;28;20546;-66
2022/08/20 05:59:13;;;;;;;41.60;30.73;;;18.60;99.90;;;;;;5047986;28;20778;-67
2022/08/20 06:01:41;;;;;;;41.90;31.43;;;18.50;99.90;;;;;;5050814;28;20966;-67
2022/08/20 06:04:23;;;;;;;37.57;29.83;;;18.40;99.90;;;;;;5051300;28;20462;-66
2022/08/20 06:06:51;;;;;;;37.70;28.47;;;18.40;99.90;;;;;;5050979;28;20482;-66
2022/08/20 06:09:22;;;;;;;44.90;29.13;;;18.50;99.90;;;;;;5051109;28;20953;-67
2022/08/20 06:11:49;;;;;;;40.90;29.37;;;18.50;99.90;;;;;;5049321;28;20451;-68
2022/08/20 06:14:16;;;;;;;37.10;28.40;;;18.50;99.90;;;;;;5048690;28;20510;-67
2022/08/20 06:16:43;;;;;;;40.50;28.70;;;18.50;99.90;;;;;;5050770;28;20485;-66
2022/08/20 06:19:11;;;;;;;44.80;26.90;;;18.60;99.90;;;;;;5051040;28;20763;-66
2022/08/20 06:21:39;;;;;;;39.23;26.80;;;18.50;99.90;;;;;;5050053;28;20737;-68
2022/08/20 06:24:07;;;;;;;48.90;26.90;;;18.60;99.90;;;;;;5049592;28;20470;-68
2022/08/20 06:26:35;;;;;;;35.40;24.80;;;18.60;99.90;;;;;;5047266;28;20474;-67
2022/08/20 06:29:02;;;;;;;50.53;24.87;;;18.60;99.90;;;;;;5051265;28;20459;-68
2022/08/20 06:31:30;;;;;;;48.37;30.77;;;18.60;99.90;;;;;;5049491;28;21098;-65
2022/08/20 06:33:57;;;;;;;40.63;28.50;;;18.60;99.90;;;;;;5049623;28;20521;-67
2022/08/20 06:36:24;;;;;;;44.20;27.80;;;18.60;99.90;;;;;;5050176;28;20470;-67
2022/08/20 06:38:55;;;;;;;47.00;27.37;;;18.60;99.90;;;;;;5048552;28;20464;-67
2022/08/20 06:41:22;;;;;;;33.30;23.10;;;18.70;99.90;;;;;;5048523;28;20943;-68
2022/08/20 06:43:52;;;;;;;26.30;22.33;;;18.70;99.90;;;;;;5050037;28;20462;-67
2022/08/20 06:46:22;;;;;;;32.10;23.90;;;18.70;99.90;;;;;;5048982;28;20552;-67
2022/08/20 06:48:50;;;;;;;33.03;22.97;;;18.60;99.90;;;;;;5050661;28;20567;-67
2022/08/20 06:51:17;;;;;;;38.93;24.37;;;18.50;99.90;;;;;;5047861;28;20470;-67
2022/08/20 06:53:44;;;;;;;37.70;23.70;;;18.50;99.90;;;;;;5049341;28;21027;-67
2022/08/20 06:56:12;;;;;;;40.10;25.00;;;18.30;99.90;;;;;;5047993;28;20470;-66
2022/08/20 06:58:39;;;;;;;46.93;26.27;;;18.40;99.90;;;;;;5054184;28;20940;-66
2022/08/20 07:01:08;;;;;;;39.97;24.33;;;18.50;99.90;;;;;;5079591;28;20828;-66
2022/08/20 07:03:36;;;;;;;38.87;24.17;;;18.50;99.90;;;;;;5066102;28;20976;-67
2022/08/20 07:06:04;;;;;;;42.90;25.43;;;18.60;99.90;;;;;;5048761;28;20455;-67
2022/08/20 07:08:31;;;;;;;41.30;24.80;;;18.50;99.90;;;;;;5047853;28;20833;-67
2022/08/20 07:10:58;;;;;;;38.40;26.87;;;18.40;99.90;;;;;;5048071;28;20482;-67
2022/08/20 07:13:25;;;;;;;42.57;26.40;;;18.40;99.90;;;;;;5047080;28;21518;-67
2022/08/20 07:15:52;;;;;;;43.20;28.13;;;18.40;99.90;;;;;;5048477;28;20497;-67
2022/08/20 07:18:21;;;;;;;49.73;29.30;;;18.50;99.90;;;;;;5048932;28;20462;-66
2022/08/20 07:20:48;;;;;;;50.10;26.63;;;18.40;99.90;;;;;;5049965;28;20459;-66
2022/08/20 07:23:15;;;;;;;37.60;25.73;;;18.50;99.90;;;;;;5047114;28;21131;-67
2022/08/20 07:25:44;;;;;;;37.60;23.93;;;18.40;99.90;;;;;;5048727;28;20463;-66
2022/08/20 07:28:15;;;;;;;40.53;23.83;;;18.50;99.90;;;;;;5048429;28;21017;-67
2022/08/20 07:33:30;;;;;;;43.33;24.57;;;18.60;99.90;;;;;;5047760;28;20562;-67
2022/08/20 07:35:57;;;;;;;44.00;26.27;;;18.60;99.90;;;;;;5048984;28;20463;-68
2022/08/20 07:38:25;;;;;;;38.50;23.57;;;18.60;99.90;;;;;;5048682;28;20952;-66
2022/08/20 07:40:53;;;;;;;43.57;25.67;;;18.50;99.90;;;;;;5046226;28;21036;-68
2022/08/20 07:43:22;;;;;;;42.30;24.07;;;18.50;99.90;;;;;;5046661;28;22084;-67
2022/08/20 07:45:48;;;;;;;45.13;25.43;;;18.50;99.90;;;;;;5048461;28;20654;-68
2022/08/20 07:48:15;;;;;;;37.03;25.03;;;18.70;99.90;;;;;;5049409;28;20940;-67
2022/08/20 07:50:43;;;;;;;33.60;23.60;;;18.70;99.90;;;;;;5048703;28;21120;-68
2022/08/20 07:53:11;;;;;;;50.27;26.60;;;18.60;99.90;;;;;;5047832;28;21253;-67
2022/08/20 07:55:41;;;;;;;41.50;25.40;;;18.70;99.90;;;;;;5048163;28;20520;-66
2022/08/20 07:58:10;;;;;;;39.40;24.83;;;18.80;99.90;;;;;;5048304;28;21112;-66
2022/08/20 08:00:37;;;;;;;39.53;26.43;;;19.10;99.90;;;;;;5048631;28;20467;-69
2022/08/20 08:03:04;;;;;;;34.57;24.60;;;19.30;99.90;;;;;;5048250;28;20506;-67
2022/08/20 08:05:33;;;;;;;43.03;25.67;;;19.20;99.90;;;;;;5048565;28;20459;-67
2022/08/20 08:08:02;;;;;;;47.53;27.20;;;19.30;99.90;;;;;;5046431;28;21042;-66
2022/08/20 08:10:29;;;;;;;37.00;25.83;;;19.10;99.90;;;;;;5047129;28;20451;-67
2022/08/20 08:13:00;;;;;;;42.33;26.37;;;19.10;99.90;;;;;;5048201;28;20775;-68
2022/08/20 08:15:30;;;;;;;42.00;26.20;;;19.10;99.90;;;;;;5048656;28;20486;-67
2022/08/20 08:18:02;;;;;;;35.83;24.33;;;19.50;99.90;;;;;;5048481;28;20474;-68
2022/08/20 08:20:28;;;;;;;40.07;24.87;;;19.70;99.90;;;;;;5048443;28;20459;-67
2022/08/20 08:22:56;;;;;;;37.93;25.57;;;19.70;99.90;;;;;;5047334;28;20832;-69
2022/08/20 08:25:25;;;;;;;42.60;25.33;;;19.80;99.90;;;;;;5048069;28;20525;-67
2022/08/20 08:27:51;;;;;;;36.53;24.67;;;20.00;99.90;;;;;;5047011;28;20565;-67
2022/08/20 08:30:19;;;;;;;38.20;25.33;;;19.70;99.90;;;;;;5047018;28;20454;-66
2022/08/20 08:35:32;;;;;;;43.20;25.27;;;19.90;99.90;;;;;;5046404;28;21177;-69
2022/08/20 08:38:01;;;;;;;36.50;25.50;;;19.90;99.90;;;;;;5046061;28;20470;-67
2022/08/20 08:40:30;;;;;;;35.87;24.57;;;19.90;99.90;;;;;;5047882;28;20470;-66
2022/08/20 08:43:00;;;;;;;39.70;23.53;;;20.00;99.90;;;;;;5047637;28;20561;-68
2022/08/20 08:45:34;;;;;;;36.00;23.70;;;20.20;99.90;;;;;;5049487;28;20493;-67
2022/08/20 08:48:01;;;;;;;31.10;24.80;;;20.10;99.90;;;;;;5048557;28;20871;-67
2022/08/20 08:50:32;;;;;;;35.10;22.90;;;20.10;99.90;;;;;;5048542;28;20467;-67
2022/08/20 08:53:01;;;;;;;31.53;22.33;;;20.00;99.90;;;;;;5046648;28;21034;-67
2022/08/20 08:55:30;;;;;;;33.50;24.07;;;20.00;99.90;;;;;;5045188;28;20486;-67
2022/08/20 08:58:01;;;;;;;30.70;23.47;;;20.10;99.90;;;;;;5050830;28;20588;-67
2022/08/20 09:00:28;;;;;;;28.50;22.53;;;20.10;99.90;;;;;;5050105;28;21117;-68
2022/08/20 09:03:00;;;;;;;33.27;22.80;;;20.20;99.90;;;;;;5049540;28;20467;-68
2022/08/20 09:05:32;;;;;;;29.63;22.40;;;20.30;99.90;;;;;;5050831;28;20466;-68
2022/08/20 09:08:02;;;;;;;28.00;22.20;;;20.50;99.90;;;;;;5049716;28;21199;-68
2022/08/20 09:10:31;;;;;;;31.23;23.10;;;20.20;99.90;;;;;;5050613;28;20900;-69
2022/08/20 09:13:01;;;;;;;27.77;22.37;;;20.30;99.90;;;;;;5052433;28;20477;-69
2022/08/20 09:15:28;;;;;;;31.23;23.43;;;20.40;99.90;;;;;;5036728;28;20475;-69
2022/08/20 09:17:54;;;;;;;41.03;24.37;;;20.60;99.90;;;;;;5028959;28;20480;-68
2022/08/20 09:20:22;;;;;;;30.30;24.27;;;20.70;99.90;;;;;;5031330;28;20832;-68
2022/08/20 09:22:48;;;;;;;31.40;25.33;;;21.00;99.90;;;;;;5026972;28;20473;-65
2022/08/20 09:25:16;;;;;;;36.23;27.53;;;21.10;99.90;;;;;;5030314;28;20499;-67
2022/08/20 09:27:44;;;;;;;37.87;24.10;;;21.10;99.90;;;;;;5043407;28;20469;-67
2022/08/20 09:30:12;;;;;;;35.00;26.00;;;21.10;99.90;;;;;;5057994;28;20488;-67
2022/08/20 09:32:40;;;;;;;31.63;24.30;;;21.30;99.90;;;;;;5057277;28;20485;-67
2022/08/20 09:35:08;;;;;;;38.10;24.07;;;21.40;99.90;;;;;;5043293;28;20510;-67
2022/08/20 09:37:35;;;;;;;41.97;24.87;;;21.40;99.90;;;;;;5030511;28;20576;-69
2022/08/20 09:40:03;;;;;;;32.23;24.37;;;21.50;99.90;;;;;;5030654;28;20933;-68
2022/08/20 09:42:32;;;;;;;35.83;25.90;;;21.60;99.90;;;;;;5029468;28;20475;-69
2022/08/20 09:45:00;;;;;;;28.67;25.33;;;21.90;99.90;;;;;;5029378;28;22428;-68
2022/08/20 09:47:27;;;;;;;35.43;27.50;;;21.90;99.90;;;;;;5029293;28;20456;-66
2022/08/20 09:49:54;;;;;;;37.27;27.23;;;22.00;99.90;;;;;;5029619;28;20462;-67
2022/08/20 09:52:24;;;;;;;30.67;25.60;;;21.80;99.90;;;;;;5031888;28;21017;-67
2022/08/20 09:54:51;;;;;;;33.83;25.47;;;21.90;99.90;;;;;;5058324;28;20882;-67
2022/08/20 09:57:19;;;;;;;32.63;26.17;;;21.80;99.90;;;;;;5055503;28;20464;-68
2022/08/20 09:59:51;;;;;;;28.40;24.87;;;21.60;99.90;;;;;;5038393;28;20466;-68
2022/08/20 10:02:20;;;;;;;40.97;25.93;;;21.70;99.90;;;;;;5029871;28;20476;-68
2022/08/20 10:04:47;;;;;;;37.17;25.43;;;21.90;99.90;;;;;;5032044;28;20863;-68
2022/08/20 10:07:14;;;;;;;38.03;25.60;;;21.90;99.90;;;;;;5029052;28;20456;-68
2022/08/20 10:09:41;;;;;;;29.83;24.37;;;21.90;99.90;;;;;;5030071;28;20899;-69
2022/08/20 10:12:08;;;;;;;33.03;23.33;;;21.90;99.90;;;;;;5030204;28;20577;-68
2022/08/20 10:14:35;;;;;;;38.20;23.90;;;21.80;99.90;;;;;;5030542;28;20491;-69
2022/08/20 10:17:03;;;;;;;30.40;24.40;;;21.80;99.90;;;;;;5029988;28;20475;-68
2022/08/20 10:19:31;;;;;;;34.93;25.47;;;22.00;99.90;;;;;;5030659;28;20468;-68
2022/08/20 10:21:59;;;;;;;28.37;23.50;;;21.80;99.90;;;;;;5030444;28;20463;-67
2022/08/20 10:24:27;;;;;;;33.40;24.80;;;21.70;99.90;;;;;;5030286;28;20464;-68
2022/08/20 10:26:55;;;;;;;30.67;24.40;;;21.90;99.90;;;;;;5030263;28;20452;-69
2022/08/20 10:29:22;;;;;;;29.67;24.30;;;22.10;99.90;;;;;;5030399;28;20855;-68
2022/08/20 10:31:50;;;;;;;31.87;25.40;;;22.10;99.90;;;;;;5030489;28;20468;-69
2022/08/20 10:34:17;;;;;;;28.40;25.27;;;22.40;99.90;;;;;;5030388;28;20495;-69
2022/08/20 10:36:45;;;;;;;26.60;23.80;;;22.50;99.90;;;;;;5028422;28;20471;-68
2022/08/20 10:39:12;;;;;;;28.00;23.70;;;22.50;99.90;;;;;;5041928;28;20479;-68
2022/08/20 10:41:39;;;;;;;26.67;24.13;;;22.50;99.90;;;;;;5064782;28;20459;-70
2022/08/20 10:44:07;;;;;;;30.23;24.60;;;22.60;99.90;;;;;;5028584;28;20460;-70
2022/08/20 10:46:34;;;;;;;29.50;25.80;;;22.70;99.90;;;;;;5028324;28;20611;-71
2022/08/20 10:49:02;;;;;;;31.63;25.70;;;22.60;99.90;;;;;;5028307;28;20468;-70
2022/08/20 10:51:29;;;;;;;38.10;27.47;;;22.80;99.90;;;;;;5022894;28;21231;-70
2022/08/20 10:53:57;;;;;;;34.60;27.10;;;22.70;99.90;;;;;;5028498;28;20525;-69
2022/08/20 10:56:24;;;;;;;34.03;28.27;;;22.80;99.90;;;;;;5029141;28;20464;-68
2022/08/20 10:58:51;;;;;;;32.17;26.80;;;22.50;99.90;;;;;;5029273;28;20513;-68
2022/08/20 11:01:17;;;;;;;33.03;27.87;;;22.60;99.90;;;;;;5029402;28;20817;-70
2022/08/20 11:03:45;;;;;;;32.83;24.97;;;22.70;99.90;;;;;;5023538;28;20456;-70
2022/08/20 11:06:12;;;;;;;29.07;26.10;;;22.70;99.90;;;;;;5026632;28;20844;-69
2022/08/20 11:08:39;;;;;;;33.70;27.00;;;22.80;99.90;;;;;;5029038;28;21071;-68
2022/08/20 11:11:07;;;;;;;28.50;25.63;;;23.10;99.90;;;;;;5029169;28;20464;-68
2022/08/20 11:13:35;;;;;;;28.20;25.27;;;23.40;99.90;;;;;;5029192;28;20472;-69
2022/08/20 11:16:03;;;;;;;30.97;24.80;;;23.80;99.90;;;;;;5028831;28;20593;-68
2022/08/20 11:18:31;;;;;;;26.77;24.20;;;24.90;99.90;;;;;;5029544;28;20607;-69
2022/08/20 11:20:59;;;;;;;31.93;24.70;;;25.80;99.90;;;;;;5029167;28;20579;-69
2022/08/20 11:23:26;;;;;;;27.60;25.00;;;25.90;99.90;;;;;;5029122;28;20467;-68
2022/08/20 11:25:55;;;;;;;27.10;24.20;;;26.00;99.90;;;;;;5028930;28;20549;-68
2022/08/20 11:28:23;;;;;;;26.23;23.67;;;25.30;99.90;;;;;;5028366;28;20460;-68
2022/08/20 11:30:50;;;;;;;30.00;25.17;;;26.30;99.90;;;;;;5028260;28;20467;-68
2022/08/20 11:33:17;;;;;;;26.90;23.10;;;25.90;99.90;;;;;;5027873;28;20464;-67
2022/08/20 11:35:45;;;;;;;26.17;23.77;;;25.00;99.90;;;;;;5028730;28;20512;-69
2022/08/20 11:38:12;;;;;;;26.97;24.10;;;25.00;99.90;;;;;;5029303;28;20459;-68
2022/08/20 11:40:39;;;;;;;28.47;25.50;;;24.50;99.90;;;;;;5027898;28;20472;-69
2022/08/20 11:43:06;;;;;;;27.77;22.03;;;24.00;99.90;;;;;;5028875;28;20460;-69
2022/08/20 11:45:34;;;;;;;24.87;22.27;;;24.10;99.90;;;;;;5029366;28;20894;-68
2022/08/20 11:48:01;;;;;;;23.87;21.13;;;24.30;99.90;;;;;;5029383;28;20467;-70
2022/08/20 11:50:27;;;;;;;20.73;18.80;;;24.50;99.90;;;;;;5028557;28;20459;-68
2022/08/20 11:52:54;;;;;;;20.40;18.30;;;24.60;99.90;;;;;;5028138;28;20846;-70
2022/08/20 11:55:21;;;;;;;20.23;18.33;;;25.60;99.90;;;;;;5028791;28;20488;-69
2022/08/20 11:57:48;;;;;;;24.67;20.40;;;26.50;99.90;;;;;;5028470;28;21077;-69
2022/08/20 12:00:19;;;;;;;22.30;20.00;;;27.30;99.90;;;;;;5051287;28;20452;-69
2022/08/20 12:02:50;;;;;;;24.57;20.47;;;27.70;99.90;;;;;;5053419;28;20812;-67
2022/08/20 12:05:18;;;;;;;21.50;19.30;;;28.20;99.90;;;;;;5033436;28;20687;-68
2022/08/20 12:07:45;;;;;;;23.07;20.93;;;28.50;99.90;;;;;;5029511;28;21304;-67
2022/08/20 12:10:12;;;;;;;19.90;18.30;;;28.70;99.90;;;;;;5027535;28;20468;-66
2022/08/20 12:12:39;;;;;;;22.57;20.40;;;28.90;99.90;;;;;;5028072;28;20468;-68
2022/08/20 12:15:09;;;;;;;23.60;21.37;;;29.40;99.90;;;;;;5028355;28;20495;-68
2022/08/20 12:17:36;;;;;;;23.30;20.90;;;29.60;99.90;;;;;;5027468;28;20471;-69
2022/08/20 12:20:07;;;;;;;21.40;19.50;;;29.10;99.90;;;;;;5028054;28;21306;-69
2022/08/20 12:22:34;;;;;;;20.83;18.93;;;29.00;99.90;;;;;;5027829;28;20862;-68
2022/08/20 12:25:01;;;;;;;21.40;19.50;;;29.60;99.90;;;;;;5028185;28;20455;-69
2022/08/20 12:27:30;;;;;;;22.30;20.00;;;30.10;99.90;;;;;;5027573;28;20464;-69
2022/08/20 12:30:00;;;;;;;20.27;18.53;;;30.00;99.90;;;;;;5028592;28;20471;-69
2022/08/20 12:32:29;;;;;;;21.50;19.40;;;30.40;99.90;;;;;;5027677;28;20641;-67
2022/08/20 12:34:57;;;;;;;20.60;18.77;;;30.50;97.80;;;;;;5027686;28;20506;-69
2022/08/20 12:37:28;;;;;;;19.30;17.67;;;30.70;97.80;;;;;;5028589;28;20462;-70
2022/08/20 12:39:58;;;;;;;20.33;18.57;;;30.30;95.60;;;;;;5028160;28;20964;-71
2022/08/20 12:42:25;;;;;;;19.03;17.63;;;30.10;94.50;;;;;;5028216;28;20826;-69